WetterOnline ( https://www.wetteronline.de )

Wetter aktuell Rothaargebirge

Aktuelles Wetter: Kahler Asten (841m)

6-stündlich | Neueste Meldungen
Ortszeit Temperatur Wetter
Mi, 29.05. 8:00 9.7° C Nebel
Mi, 29.05. 2:00 9.3° C Regen
Di, 28.05. 20:00 11.1° C bewölkt
Di, 28.05. 14:00 10.7° C wolkig
Di, 28.05. 8:00 6.1° C Nebel
Di, 28.05. 2:00 8.6° C Nebel
Mo, 27.05. 20:00 10.3° C Regen
Mo, 27.05. 14:00 15.6° C wolkig
Ortszeit Temperatur Wetter
Mi, 29.05. 13:00 9.6° C Regen
Mi, 29.05. 12:50 9.6° C Regen
Mi, 29.05. 12:40 9.7° C starker Regen
Mi, 29.05. 12:30 10.6° C leichter Regen
Mi, 29.05. 12:20 10.6° C leichter Regen
Mi, 29.05. 12:10 10.5° C bewölkt
Mi, 29.05. 12:00 10.3° C Nebel
Mi, 29.05. 11:30 10.1° C leichter Regen
Mi, 29.05. 11:00 9.8° C Sprühregen
Mi, 29.05. 10:30 9.6° C bewölkt
Mi, 29.05. 10:00 9.6° C Sprühregen
Ortszeit Relative Feuchte Sichtweite
Mi, 29.05. 8:00 100% 100 m
Mi, 29.05. 2:00 95% 3.0 km
Di, 28.05. 20:00 71% >70 km
Di, 28.05. 14:00 72% >70 km
Di, 28.05. 8:00 100% 0.2 km
Di, 28.05. 2:00 99% 0.4 km
Mo, 27.05. 20:00 95% 3.7 km
Mo, 27.05. 14:00 64% 45 km
Ortszeit Relative Feuchte Sichtweite
Mi, 29.05. 13:00 98% 7 km
Mi, 29.05. 12:50 98% -
Mi, 29.05. 12:40 99% -
Mi, 29.05. 12:30 100% 1.0 km
Mi, 29.05. 12:20 100% -
Mi, 29.05. 12:10 99% -
Mi, 29.05. 12:00 100% 0.6 km
Mi, 29.05. 11:30 100% 0.2 km
Mi, 29.05. 11:00 100% 1.1 km
Mi, 29.05. 10:30 99% 6 km
Mi, 29.05. 10:00 100% 0.2 km
Ortszeit Niederschlagsmenge Niederschlagsart
Mi, 29.05. 8:00 2 l/m2 in 12 Std. Regen
Mi, 29.05. 2:00 0.4 l/m2 in 6 Std. Regen
Di, 28.05. 20:00 0.1 l/m2 in 12 Std. -
Di, 28.05. 14:00 0.1 l/m2 in 6 Std. Regen
Di, 28.05. 8:00 2 l/m2 in 12 Std. Regen
Di, 28.05. 2:00 2 l/m2 in 6 Std. Regen
Mo, 27.05. 20:00 3 l/m2 in 12 Std. Regen
Mo, 27.05. 14:00 0.0 l/m2 in 6 Std. -
Ortszeit Niederschlagsmenge Niederschlagsart
Mi, 29.05. 13:00 3.0 l/m2 in 1 Std. Regen
Mi, 29.05. 12:50 keine Meldung -
Mi, 29.05. 12:40 keine Meldung -
Mi, 29.05. 12:30 <0.05 l/m2 in 30 Min -
Mi, 29.05. 12:20 keine Meldung -
Mi, 29.05. 12:10 keine Meldung -
Mi, 29.05. 12:00 0.2 l/m2 in 1 Std. Regen
Mi, 29.05. 11:30 <0.05 l/m2 in 30 Min -
Mi, 29.05. 11:00 0.3 l/m2 in 1 Std. Regen
Mi, 29.05. 10:30 0.1 l/m2 in 30 Min Schneeregen
Mi, 29.05. 10:00 0.4 l/m2 in 1 Std. Regen
Ortszeit Stärke Spitze Richtung
km/h Bft. km/h Grad Sektor
Mi, 29.05. 8:00 24 4 43 200° S
Mi, 29.05. 2:00 24 4 50 210° SW
Di, 28.05. 20:00 22 4 40 210° SW
Di, 28.05. 14:00 17 3 37 240° SW
Di, 28.05. 8:00 24 4 39 260° W
Di, 28.05. 2:00 17 3 28 280° W
Mo, 27.05. 20:00 17 3 30 190° S
Mo, 27.05. 14:00 11 2 32 230° SW
Ortszeit Stärke Spitze Richtung
km/h Bft. km/h Grad Sektor
Mi, 29.05. 13:00 24 4 43 250° W
Mi, 29.05. 12:50 24 4 - 250° W
Mi, 29.05. 12:40 20 4 - 250° W
Mi, 29.05. 12:30 22 4 40 220° SW
Mi, 29.05. 12:20 22 4 - 220° SW
Mi, 29.05. 12:10 24 4 - 220° SW
Mi, 29.05. 12:00 28 4 44 220° SW
Mi, 29.05. 11:30 22 4 47 210° SW
Mi, 29.05. 11:00 31 5 57 210° SW
Mi, 29.05. 10:30 35 5 57 210° SW
Mi, 29.05. 10:00 30 5 52 210° SW
Ortszeit Untergrenze Bedeckung Gattung
total tief tief mittel hoch
Mi, 29.05. 8:00 <30 m 7/8 0/8 - - -
Mi, 29.05. 2:00 150 m 8/8 8/8 - - -
Di, 28.05. 20:00 1800 m 8/8 7/8 - - -
Di, 28.05. 14:00 630 m 5/8 5/8 - - -
Di, 28.05. 8:00 <30 m 7/8 0/8 - - -
Di, 28.05. 2:00 <30 m 8/8 0/8 - - -
Mo, 27.05. 20:00 390 m 7/8 7/8 - - -
Mo, 27.05. 14:00 1170 m 5/8 4/8 - - -
Ortszeit Bedeckungsgrad in Achtel und Wolkenuntergrenze
Mi, 29.05. 13:00 7(30m) 7(240m)
Mi, 29.05. 12:50 7(30m) 7(240m)
Mi, 29.05. 12:40 7
Mi, 29.05. 12:30 7(60m) 7(180m)
Mi, 29.05. 12:20 7(60m) 7(180m)
Mi, 29.05. 12:10 7
Mi, 29.05. 12:00 7(<30m)
Mi, 29.05. 11:30 8(<30m)
Mi, 29.05. 11:00 7(<30m) 8(150m)
Mi, 29.05. 10:30 6(<30m) 7(120m)
Mi, 29.05. 10:00 7(<30m)
Ortszeit Stationsdruck (hPa) Tendenz (hPa in 3 Std.)
Mi, 29.05. 8:00 914 - 1,1
Mi, 29.05. 2:00 917 - 1,2
Di, 28.05. 20:00 918 - 0,7
Di, 28.05. 14:00 920 0,0
Di, 28.05. 8:00 919 + 0,9
Di, 28.05. 2:00 918 - 0,4
Mo, 27.05. 20:00 918 0,0
Mo, 27.05. 14:00 919 - 0,6
Ortszeit Stationsdruck (hPa) Tendenz (hPa in 3 Std.)
Mi, 29.05. 13:00 913 - 0,4
Mi, 29.05. 12:50 913 keine Meldung
Mi, 29.05. 12:40 913 keine Meldung
Mi, 29.05. 12:30 913 - 0,8
Mi, 29.05. 12:20 913 keine Meldung
Mi, 29.05. 12:10 913 keine Meldung
Mi, 29.05. 12:00 913 - 0,7
Mi, 29.05. 11:30 913 - 0,7
Mi, 29.05. 11:00 913 - 0,7
Mi, 29.05. 10:30 913 - 0,9
Mi, 29.05. 10:00 914 - 0,8
Ortszeit Schneehöhe (cm)
Mi, 29.05. 8:00 0
Mi, 29.05. 2:00 0
Di, 28.05. 20:00 0
Di, 28.05. 14:00 0
Di, 28.05. 8:00 0
Di, 28.05. 2:00 0
Mo, 27.05. 20:00 0
Mo, 27.05. 14:00 0
Ortszeit Schneehöhe (cm)
Mi, 29.05. 13:00 0
Mi, 29.05. 12:50 0
Mi, 29.05. 12:40 -
Mi, 29.05. 12:30 0
Mi, 29.05. 12:20 0
Mi, 29.05. 12:10 -
Mi, 29.05. 12:00 0
Mi, 29.05. 11:30 0
Mi, 29.05. 11:00 0
Mi, 29.05. 10:30 0
Mi, 29.05. 10:00 0
Link zu dieser Seite / Seite empfehlen

Das Wetter in ...